sensor_id;sensor_type;location;lat;lon;timestamp;P1;durP1;ratioP1;P2;durP2;ratioP2
10687;SDS011;5392;42.688;23.298;2022-07-23T00:00:10;4.50;;;3.28;;
10687;SDS011;5392;42.688;23.298;2022-07-23T00:02:37;6.40;;;3.13;;
10687;SDS011;5392;42.688;23.298;2022-07-23T00:05:04;3.75;;;3.42;;
10687;SDS011;5392;42.688;23.298;2022-07-23T00:07:30;4.88;;;3.28;;
10687;SDS011;5392;42.688;23.298;2022-07-23T00:09:57;5.80;;;3.30;;
10687;SDS011;5392;42.688;23.298;2022-07-23T00:12:24;6.50;;;3.85;;
10687;SDS011;5392;42.688;23.298;2022-07-23T00:14:51;6.85;;;2.97;;
10687;SDS011;5392;42.688;23.298;2022-07-23T00:17:18;3.65;;;2.92;;
10687;SDS011;5392;42.688;23.298;2022-07-23T00:19:44;4.50;;;3.30;;
10687;SDS011;5392;42.688;23.298;2022-07-23T00:22:11;3.58;;;3.25;;
10687;SDS011;5392;42.688;23.298;2022-07-23T00:24:38;4.72;;;3.85;;
10687;SDS011;5392;42.688;23.298;2022-07-23T00:27:05;5.95;;;3.47;;
10687;SDS011;5392;42.688;23.298;2022-07-23T00:29:31;5.22;;;3.55;;
10687;SDS011;5392;42.688;23.298;2022-07-23T00:31:58;5.25;;;3.50;;
10687;SDS011;5392;42.688;23.298;2022-07-23T00:34:25;3.97;;;3.25;;
10687;SDS011;5392;42.688;23.298;2022-07-23T00:36:51;3.42;;;3.17;;
10687;SDS011;5392;42.688;23.298;2022-07-23T00:39:20;7.18;;;3.55;;
10687;SDS011;5392;42.688;23.298;2022-07-23T00:41:50;6.10;;;3.38;;
10687;SDS011;5392;42.688;23.298;2022-07-23T00:44:21;4.43;;;3.50;;
10687;SDS011;5392;42.688;23.298;2022-07-23T00:46:53;3.50;;;3.30;;
10687;SDS011;5392;42.688;23.298;2022-07-23T00:49:26;3.75;;;3.45;;
10687;SDS011;5392;42.688;23.298;2022-07-23T00:51:55;7.45;;;3.67;;
10687;SDS011;5392;42.688;23.298;2022-07-23T00:54:24;6.88;;;3.42;;
10687;SDS011;5392;42.688;23.298;2022-07-23T00:56:52;4.95;;;3.65;;
10687;SDS011;5392;42.688;23.298;2022-07-23T00:59:20;8.32;;;3.90;;
10687;SDS011;5392;42.688;23.298;2022-07-23T01:01:47;3.95;;;3.60;;
10687;SDS011;5392;42.688;23.298;2022-07-23T01:04:15;6.57;;;4.20;;
10687;SDS011;5392;42.688;23.298;2022-07-23T01:06:43;4.63;;;4.07;;
10687;SDS011;5392;42.688;23.298;2022-07-23T01:09:10;7.30;;;4.43;;
10687;SDS011;5392;42.688;23.298;2022-07-23T01:11:37;6.45;;;4.10;;
10687;SDS011;5392;42.688;23.298;2022-07-23T01:14:14;10.35;;;4.78;;
10687;SDS011;5392;42.688;23.298;2022-07-23T01:16:43;7.28;;;4.07;;
10687;SDS011;5392;42.688;23.298;2022-07-23T01:19:11;9.88;;;4.15;;
10687;SDS011;5392;42.688;23.298;2022-07-23T01:21:39;4.47;;;4.10;;
10687;SDS011;5392;42.688;23.298;2022-07-23T01:24:08;5.93;;;4.00;;
10687;SDS011;5392;42.688;23.298;2022-07-23T01:26:36;7.55;;;4.10;;
10687;SDS011;5392;42.688;23.298;2022-07-23T01:29:03;5.28;;;3.70;;
10687;SDS011;5392;42.688;23.298;2022-07-23T01:31:30;4.45;;;4.07;;
10687;SDS011;5392;42.688;23.298;2022-07-23T01:33:57;5.55;;;4.28;;
10687;SDS011;5392;42.688;23.298;2022-07-23T01:36:25;4.80;;;3.42;;
10687;SDS011;5392;42.688;23.298;2022-07-23T01:38:52;4.35;;;3.78;;
10687;SDS011;5392;42.688;23.298;2022-07-23T01:41:19;4.97;;;3.85;;
10687;SDS011;5392;42.688;23.298;2022-07-23T01:43:46;9.98;;;4.03;;
10687;SDS011;5392;42.688;23.298;2022-07-23T01:46:14;4.82;;;3.58;;
10687;SDS011;5392;42.688;23.298;2022-07-23T01:48:42;8.43;;;3.95;;
10687;SDS011;5392;42.688;23.298;2022-07-23T01:51:09;3.85;;;3.55;;
10687;SDS011;5392;42.688;23.298;2022-07-23T01:53:36;6.00;;;4.05;;
10687;SDS011;5392;42.688;23.298;2022-07-23T01:56:03;4.30;;;3.85;;
10687;SDS011;5392;42.688;23.298;2022-07-23T01:58:30;7.82;;;3.70;;
10687;SDS011;5392;42.688;23.298;2022-07-23T02:00:57;5.32;;;3.63;;
10687;SDS011;5392;42.688;23.298;2022-07-23T02:03:24;9.23;;;3.42;;
10687;SDS011;5392;42.688;23.298;2022-07-23T02:05:51;3.35;;;3.05;;
10687;SDS011;5392;42.688;23.298;2022-07-23T02:08:18;3.67;;;3.40;;
10687;SDS011;5392;42.688;23.298;2022-07-23T02:10:45;8.13;;;3.55;;
10687;SDS011;5392;42.688;23.298;2022-07-23T02:13:12;4.72;;;3.45;;
10687;SDS011;5392;42.688;23.298;2022-07-23T02:15:45;6.05;;;3.33;;
10687;SDS011;5392;42.688;23.298;2022-07-23T02:18:15;6.20;;;4.00;;
10687;SDS011;5392;42.688;23.298;2022-07-23T02:20:42;4.50;;;3.78;;
10687;SDS011;5392;42.688;23.298;2022-07-23T02:23:09;4.25;;;3.88;;
10687;SDS011;5392;42.688;23.298;2022-07-23T02:25:35;7.40;;;4.28;;
10687;SDS011;5392;42.688;23.298;2022-07-23T02:28:02;7.80;;;3.95;;
10687;SDS011;5392;42.688;23.298;2022-07-23T02:30:29;6.93;;;4.72;;
10687;SDS011;5392;42.688;23.298;2022-07-23T02:32:56;5.03;;;4.53;;
10687;SDS011;5392;42.688;23.298;2022-07-23T02:35:23;5.10;;;4.60;;
10687;SDS011;5392;42.688;23.298;2022-07-23T02:37:50;5.28;;;4.75;;
10687;SDS011;5392;42.688;23.298;2022-07-23T02:40:17;7.55;;;4.35;;
10687;SDS011;5392;42.688;23.298;2022-07-23T02:42:44;6.35;;;4.47;;
10687;SDS011;5392;42.688;23.298;2022-07-23T02:45:11;4.82;;;4.25;;
10687;SDS011;5392;42.688;23.298;2022-07-23T02:47:37;7.30;;;4.40;;
10687;SDS011;5392;42.688;23.298;2022-07-23T02:50:04;4.38;;;3.83;;
10687;SDS011;5392;42.688;23.298;2022-07-23T02:52:31;5.05;;;4.35;;
10687;SDS011;5392;42.688;23.298;2022-07-23T02:54:58;6.80;;;4.35;;
10687;SDS011;5392;42.688;23.298;2022-07-23T02:57:25;6.38;;;4.97;;
10687;SDS011;5392;42.688;23.298;2022-07-23T02:59:52;5.13;;;4.15;;
10687;SDS011;5392;42.688;23.298;2022-07-23T03:02:18;5.75;;;4.63;;
10687;SDS011;5392;42.688;23.298;2022-07-23T03:04:45;7.05;;;5.35;;
10687;SDS011;5392;42.688;23.298;2022-07-23T03:07:12;7.72;;;4.72;;
10687;SDS011;5392;42.688;23.298;2022-07-23T03:09:39;5.88;;;5.00;;
10687;SDS011;5392;42.688;23.298;2022-07-23T03:12:05;5.65;;;4.47;;
10687;SDS011;5392;42.688;23.298;2022-07-23T03:14:39;7.25;;;4.95;;
10687;SDS011;5392;42.688;23.298;2022-07-23T03:17:07;5.32;;;4.80;;
10687;SDS011;5392;42.688;23.298;2022-07-23T03:19:34;7.03;;;4.82;;
10687;SDS011;5392;42.688;23.298;2022-07-23T03:22:03;6.15;;;4.68;;
10687;SDS011;5392;42.688;23.298;2022-07-23T03:24:30;5.20;;;4.70;;
10687;SDS011;5392;42.688;23.298;2022-07-23T03:27:15;5.10;;;4.70;;
10687;SDS011;5392;42.688;23.298;2022-07-23T03:29:42;5.43;;;4.93;;
10687;SDS011;5392;42.688;23.298;2022-07-23T03:32:08;5.57;;;5.13;;
10687;SDS011;5392;42.688;23.298;2022-07-23T03:34:36;6.43;;;5.18;;
10687;SDS011;5392;42.688;23.298;2022-07-23T03:37:03;6.15;;;5.15;;
10687;SDS011;5392;42.688;23.298;2022-07-23T03:39:31;5.63;;;5.13;;
10687;SDS011;5392;42.688;23.298;2022-07-23T03:41:58;9.25;;;5.35;;
10687;SDS011;5392;42.688;23.298;2022-07-23T03:44:25;6.22;;;4.90;;
10687;SDS011;5392;42.688;23.298;2022-07-23T03:46:52;7.13;;;5.35;;
10687;SDS011;5392;42.688;23.298;2022-07-23T03:49:19;5.22;;;4.55;;
10687;SDS011;5392;42.688;23.298;2022-07-23T03:51:46;9.63;;;4.78;;
10687;SDS011;5392;42.688;23.298;2022-07-23T03:54:13;6.40;;;4.80;;
10687;SDS011;5392;42.688;23.298;2022-07-23T03:56:40;6.90;;;4.68;;
10687;SDS011;5392;42.688;23.298;2022-07-23T03:59:07;5.38;;;4.88;;
10687;SDS011;5392;42.688;23.298;2022-07-23T04:01:34;8.45;;;4.40;;
10687;SDS011;5392;42.688;23.298;2022-07-23T04:04:01;7.00;;;4.30;;
10687;SDS011;5392;42.688;23.298;2022-07-23T04:06:28;5.22;;;4.72;;
10687;SDS011;5392;42.688;23.298;2022-07-23T04:08:55;8.52;;;4.82;;
10687;SDS011;5392;42.688;23.298;2022-07-23T04:11:23;10.90;;;4.93;;
10687;SDS011;5392;42.688;23.298;2022-07-23T04:13:50;7.50;;;4.75;;
10687;SDS011;5392;42.688;23.298;2022-07-23T04:16:16;6.88;;;4.32;;
10687;SDS011;5392;42.688;23.298;2022-07-23T04:18:43;5.13;;;4.10;;
10687;SDS011;5392;42.688;23.298;2022-07-23T04:21:11;6.57;;;4.32;;
10687;SDS011;5392;42.688;23.298;2022-07-23T04:23:38;4.80;;;4.40;;
10687;SDS011;5392;42.688;23.298;2022-07-23T04:26:05;10.25;;;4.10;;
10687;SDS011;5392;42.688;23.298;2022-07-23T04:28:32;6.22;;;3.95;;
10687;SDS011;5392;42.688;23.298;2022-07-23T04:30:58;6.18;;;4.40;;
10687;SDS011;5392;42.688;23.298;2022-07-23T04:33:25;7.75;;;4.25;;
10687;SDS011;5392;42.688;23.298;2022-07-23T04:35:52;6.55;;;4.57;;
10687;SDS011;5392;42.688;23.298;2022-07-23T04:38:19;5.97;;;4.65;;
10687;SDS011;5392;42.688;23.298;2022-07-23T04:40:46;4.97;;;4.32;;
10687;SDS011;5392;42.688;23.298;2022-07-23T04:43:12;5.40;;;4.97;;
10687;SDS011;5392;42.688;23.298;2022-07-23T04:45:39;7.75;;;4.20;;
10687;SDS011;5392;42.688;23.298;2022-07-23T04:48:09;7.93;;;4.47;;
10687;SDS011;5392;42.688;23.298;2022-07-23T04:50:35;5.93;;;4.00;;
10687;SDS011;5392;42.688;23.298;2022-07-23T04:53:02;4.30;;;3.90;;
10687;SDS011;5392;42.688;23.298;2022-07-23T04:55:29;7.32;;;3.78;;
10687;SDS011;5392;42.688;23.298;2022-07-23T04:57:55;7.95;;;4.75;;
10687;SDS011;5392;42.688;23.298;2022-07-23T05:00:22;7.38;;;4.13;;
10687;SDS011;5392;42.688;23.298;2022-07-23T05:02:49;9.20;;;4.03;;
10687;SDS011;5392;42.688;23.298;2022-07-23T05:05:16;4.82;;;4.38;;
10687;SDS011;5392;42.688;23.298;2022-07-23T05:07:43;8.35;;;4.25;;
10687;SDS011;5392;42.688;23.298;2022-07-23T05:10:10;5.75;;;4.63;;
10687;SDS011;5392;42.688;23.298;2022-07-23T05:12:36;5.63;;;3.92;;
10687;SDS011;5392;42.688;23.298;2022-07-23T05:15:03;7.38;;;4.18;;
10687;SDS011;5392;42.688;23.298;2022-07-23T05:17:30;6.65;;;3.70;;
10687;SDS011;5392;42.688;23.298;2022-07-23T05:19:57;6.80;;;3.60;;
10687;SDS011;5392;42.688;23.298;2022-07-23T05:22:26;4.05;;;3.33;;
10687;SDS011;5392;42.688;23.298;2022-07-23T05:24:53;5.80;;;4.13;;
10687;SDS011;5392;42.688;23.298;2022-07-23T05:27:20;3.67;;;3.38;;
10687;SDS011;5392;42.688;23.298;2022-07-23T05:29:47;4.78;;;3.50;;
10687;SDS011;5392;42.688;23.298;2022-07-23T05:32:14;5.70;;;3.65;;
10687;SDS011;5392;42.688;23.298;2022-07-23T05:34:40;5.38;;;4.05;;
10687;SDS011;5392;42.688;23.298;2022-07-23T05:37:07;8.05;;;4.20;;
10687;SDS011;5392;42.688;23.298;2022-07-23T05:39:34;10.68;;;4.50;;
10687;SDS011;5392;42.688;23.298;2022-07-23T05:42:00;8.73;;;4.30;;
10687;SDS011;5392;42.688;23.298;2022-07-23T05:44:27;5.70;;;4.07;;
10687;SDS011;5392;42.688;23.298;2022-07-23T05:47:00;7.82;;;4.22;;
10687;SDS011;5392;42.688;23.298;2022-07-23T05:49:27;5.00;;;4.05;;
10687;SDS011;5392;42.688;23.298;2022-07-23T05:51:53;11.43;;;4.13;;
10687;SDS011;5392;42.688;23.298;2022-07-23T05:54:20;4.93;;;4.50;;
10687;SDS011;5392;42.688;23.298;2022-07-23T05:56:47;4.82;;;3.70;;
10687;SDS011;5392;42.688;23.298;2022-07-23T05:59:14;6.85;;;4.80;;
10687;SDS011;5392;42.688;23.298;2022-07-23T06:01:41;7.78;;;4.22;;
10687;SDS011;5392;42.688;23.298;2022-07-23T06:04:08;5.53;;;3.75;;
10687;SDS011;5392;42.688;23.298;2022-07-23T06:06:35;4.78;;;3.83;;
10687;SDS011;5392;42.688;23.298;2022-07-23T06:09:02;5.43;;;4.05;;
10687;SDS011;5392;42.688;23.298;2022-07-23T06:11:30;6.25;;;4.10;;
10687;SDS011;5392;42.688;23.298;2022-07-23T06:13:57;6.55;;;3.88;;
10687;SDS011;5392;42.688;23.298;2022-07-23T06:16:24;5.05;;;3.53;;
10687;SDS011;5392;42.688;23.298;2022-07-23T06:18:51;5.22;;;3.85;;
10687;SDS011;5392;42.688;23.298;2022-07-23T06:21:17;3.75;;;3.42;;
10687;SDS011;5392;42.688;23.298;2022-07-23T06:24:04;7.72;;;3.92;;
10687;SDS011;5392;42.688;23.298;2022-07-23T06:26:31;4.28;;;3.78;;
10687;SDS011;5392;42.688;23.298;2022-07-23T06:28:58;7.47;;;4.18;;
10687;SDS011;5392;42.688;23.298;2022-07-23T06:31:25;7.95;;;4.40;;
10687;SDS011;5392;42.688;23.298;2022-07-23T06:33:51;6.43;;;4.70;;
10687;SDS011;5392;42.688;23.298;2022-07-23T06:36:18;9.63;;;5.10;;
10687;SDS011;5392;42.688;23.298;2022-07-23T06:38:45;5.22;;;4.80;;
10687;SDS011;5392;42.688;23.298;2022-07-23T06:41:13;11.07;;;4.93;;
10687;SDS011;5392;42.688;23.298;2022-07-23T06:43:40;6.68;;;5.03;;
10687;SDS011;5392;42.688;23.298;2022-07-23T06:46:07;14.68;;;5.57;;
10687;SDS011;5392;42.688;23.298;2022-07-23T06:48:34;9.00;;;4.13;;
10687;SDS011;5392;42.688;23.298;2022-07-23T06:51:02;5.00;;;4.57;;
10687;SDS011;5392;42.688;23.298;2022-07-23T06:53:29;8.07;;;4.90;;
10687;SDS011;5392;42.688;23.298;2022-07-23T06:55:56;8.48;;;4.65;;
10687;SDS011;5392;42.688;23.298;2022-07-23T06:58:22;4.18;;;3.70;;
10687;SDS011;5392;42.688;23.298;2022-07-23T07:00:49;5.20;;;3.92;;
10687;SDS011;5392;42.688;23.298;2022-07-23T07:03:16;6.55;;;3.88;;
10687;SDS011;5392;42.688;23.298;2022-07-23T07:05:44;5.10;;;3.80;;
10687;SDS011;5392;42.688;23.298;2022-07-23T07:08:11;4.43;;;3.83;;
10687;SDS011;5392;42.688;23.298;2022-07-23T07:10:38;9.80;;;3.95;;
10687;SDS011;5392;42.688;23.298;2022-07-23T07:13:05;9.35;;;4.63;;
10687;SDS011;5392;42.688;23.298;2022-07-23T07:15:32;5.43;;;4.07;;
10687;SDS011;5392;42.688;23.298;2022-07-23T07:17:59;4.10;;;3.63;;
10687;SDS011;5392;42.688;23.298;2022-07-23T07:20:26;3.53;;;3.22;;
10687;SDS011;5392;42.688;23.298;2022-07-23T07:22:53;5.90;;;3.60;;
10687;SDS011;5392;42.688;23.298;2022-07-23T07:25:19;4.38;;;3.13;;
10687;SDS011;5392;42.688;23.298;2022-07-23T07:27:46;6.35;;;3.38;;
10687;SDS011;5392;42.688;23.298;2022-07-23T07:30:13;6.75;;;4.05;;
10687;SDS011;5392;42.688;23.298;2022-07-23T07:32:40;4.60;;;4.00;;
10687;SDS011;5392;42.688;23.298;2022-07-23T07:35:24;6.72;;;3.47;;
10687;SDS011;5392;42.688;23.298;2022-07-23T07:37:51;6.10;;;3.38;;
10687;SDS011;5392;42.688;23.298;2022-07-23T07:40:18;5.10;;;3.08;;
10687;SDS011;5392;42.688;23.298;2022-07-23T07:42:49;6.60;;;3.95;;
10687;SDS011;5392;42.688;23.298;2022-07-23T07:45:21;6.35;;;3.38;;
10687;SDS011;5392;42.688;23.298;2022-07-23T07:47:49;6.05;;;3.33;;
10687;SDS011;5392;42.688;23.298;2022-07-23T07:50:16;8.90;;;3.83;;
10687;SDS011;5392;42.688;23.298;2022-07-23T07:52:43;4.13;;;3.10;;
10687;SDS011;5392;42.688;23.298;2022-07-23T07:55:10;3.65;;;3.35;;
10687;SDS011;5392;42.688;23.298;2022-07-23T07:57:38;6.93;;;4.30;;
10687;SDS011;5392;42.688;23.298;2022-07-23T08:00:06;4.70;;;3.45;;
10687;SDS011;5392;42.688;23.298;2022-07-23T08:02:50;4.25;;;3.42;;
10687;SDS011;5392;42.688;23.298;2022-07-23T08:05:23;7.78;;;4.13;;
10687;SDS011;5392;42.688;23.298;2022-07-23T08:07:53;3.60;;;3.28;;
10687;SDS011;5392;42.688;23.298;2022-07-23T08:10:22;5.82;;;2.88;;
10687;SDS011;5392;42.688;23.298;2022-07-23T08:12:49;3.35;;;3.05;;
10687;SDS011;5392;42.688;23.298;2022-07-23T08:15:22;6.93;;;3.55;;
10687;SDS011;5392;42.688;23.298;2022-07-23T08:17:49;4.80;;;3.17;;
10687;SDS011;5392;42.688;23.298;2022-07-23T08:20:17;3.58;;;3.05;;
10687;SDS011;5392;42.688;23.298;2022-07-23T08:22:56;5.90;;;3.20;;
10687;SDS011;5392;42.688;23.298;2022-07-23T08:25:31;3.50;;;3.20;;
10687;SDS011;5392;42.688;23.298;2022-07-23T08:28:01;4.82;;;3.60;;
10687;SDS011;5392;42.688;23.298;2022-07-23T08:30:30;6.13;;;3.88;;
10687;SDS011;5392;42.688;23.298;2022-07-23T08:33:17;5.80;;;3.97;;
10687;SDS011;5392;42.688;23.298;2022-07-23T08:36:00;7.80;;;3.70;;
10687;SDS011;5392;42.688;23.298;2022-07-23T08:38:29;6.97;;;3.20;;
10687;SDS011;5392;42.688;23.298;2022-07-23T08:40:56;5.43;;;3.70;;
10687;SDS011;5392;42.688;23.298;2022-07-23T08:43:27;4.18;;;3.70;;
10687;SDS011;5392;42.688;23.298;2022-07-23T08:45:56;4.00;;;3.70;;
10687;SDS011;5392;42.688;23.298;2022-07-23T08:48:27;8.98;;;3.15;;
10687;SDS011;5392;42.688;23.298;2022-07-23T08:50:57;3.78;;;3.47;;
10687;SDS011;5392;42.688;23.298;2022-07-23T08:53:28;10.40;;;4.00;;
10687;SDS011;5392;42.688;23.298;2022-07-23T08:55:57;6.53;;;4.00;;
10687;SDS011;5392;42.688;23.298;2022-07-23T08:58:28;8.32;;;3.83;;
10687;SDS011;5392;42.688;23.298;2022-07-23T09:00:55;6.28;;;3.40;;
10687;SDS011;5392;42.688;23.298;2022-07-23T09:03:27;7.72;;;4.00;;
10687;SDS011;5392;42.688;23.298;2022-07-23T09:05:58;4.50;;;3.40;;
10687;SDS011;5392;42.688;23.298;2022-07-23T09:11:00;5.53;;;3.58;;
10687;SDS011;5392;42.688;23.298;2022-07-23T09:16:08;9.82;;;3.25;;
10687;SDS011;5392;42.688;23.298;2022-07-23T09:18:38;10.38;;;3.38;;
10687;SDS011;5392;42.688;23.298;2022-07-23T09:21:12;6.28;;;3.90;;
10687;SDS011;5392;42.688;23.298;2022-07-23T09:24:01;4.93;;;3.67;;
10687;SDS011;5392;42.688;23.298;2022-07-23T09:29:20;7.25;;;3.60;;
10687;SDS011;5392;42.688;23.298;2022-07-23T09:31:54;8.88;;;3.58;;
10687;SDS011;5392;42.688;23.298;2022-07-23T09:37:11;4.10;;;2.92;;
10687;SDS011;5392;42.688;23.298;2022-07-23T09:39:40;8.27;;;3.72;;
10687;SDS011;5392;42.688;23.298;2022-07-23T09:44:47;6.25;;;3.40;;
10687;SDS011;5392;42.688;23.298;2022-07-23T09:47:15;5.22;;;3.08;;
10687;SDS011;5392;42.688;23.298;2022-07-23T09:49:58;6.18;;;3.35;;
10687;SDS011;5392;42.688;23.298;2022-07-23T09:52:26;7.85;;;3.20;;
10687;SDS011;5392;42.688;23.298;2022-07-23T09:55:02;5.55;;;2.90;;
10687;SDS011;5392;42.688;23.298;2022-07-23T09:57:33;3.70;;;3.00;;
10687;SDS011;5392;42.688;23.298;2022-07-23T10:00:01;6.60;;;2.63;;
10687;SDS011;5392;42.688;23.298;2022-07-23T10:02:34;2.97;;;2.17;;
10687;SDS011;5392;42.688;23.298;2022-07-23T10:05:02;5.30;;;2.08;;
10687;SDS011;5392;42.688;23.298;2022-07-23T10:07:35;6.38;;;2.90;;
10687;SDS011;5392;42.688;23.298;2022-07-23T10:10:04;5.38;;;2.58;;
10687;SDS011;5392;42.688;23.298;2022-07-23T10:12:32;3.17;;;2.60;;
10687;SDS011;5392;42.688;23.298;2022-07-23T10:15:05;8.80;;;2.75;;
10687;SDS011;5392;42.688;23.298;2022-07-23T10:17:33;5.88;;;3.03;;
10687;SDS011;5392;42.688;23.298;2022-07-23T10:20:01;4.85;;;3.00;;
10687;SDS011;5392;42.688;23.298;2022-07-23T10:22:35;7.43;;;2.45;;
10687;SDS011;5392;42.688;23.298;2022-07-23T10:36:56;7.70;;;2.72;;
10687;SDS011;5392;42.688;23.298;2022-07-23T10:39:30;7.70;;;2.95;;
10687;SDS011;5392;42.688;23.298;2022-07-23T10:42:12;8.32;;;2.58;;
10687;SDS011;5392;42.688;23.298;2022-07-23T10:47:12;9.32;;;2.08;;
10687;SDS011;5392;42.688;23.298;2022-07-23T10:49:52;4.13;;;1.65;;
10687;SDS011;5392;42.688;23.298;2022-07-23T10:52:19;6.47;;;1.92;;
10687;SDS011;5392;42.688;23.298;2022-07-23T10:54:52;5.53;;;2.53;;
10687;SDS011;5392;42.688;23.298;2022-07-23T10:57:50;6.65;;;2.13;;
10687;SDS011;5392;42.688;23.298;2022-07-23T11:00:21;6.50;;;1.83;;
10687;SDS011;5392;42.688;23.298;2022-07-23T11:02:54;8.07;;;2.30;;
10687;SDS011;5392;42.688;23.298;2022-07-23T11:05:39;8.15;;;2.75;;
10687;SDS011;5392;42.688;23.298;2022-07-23T11:10:51;3.03;;;2.03;;
10687;SDS011;5392;42.688;23.298;2022-07-23T11:13:37;5.43;;;1.20;;
10687;SDS011;5392;42.688;23.298;2022-07-23T11:16:11;8.70;;;1.73;;
10687;SDS011;5392;42.688;23.298;2022-07-23T11:32:05;8.25;;;2.00;;
10687;SDS011;5392;42.688;23.298;2022-07-23T11:34:42;7.85;;;1.80;;
10687;SDS011;5392;42.688;23.298;2022-07-23T11:37:12;6.32;;;1.40;;
10687;SDS011;5392;42.688;23.298;2022-07-23T11:39:57;4.72;;;1.65;;
10687;SDS011;5392;42.688;23.298;2022-07-23T11:42:25;6.90;;;2.13;;
10687;SDS011;5392;42.688;23.298;2022-07-23T11:44:56;5.72;;;1.88;;
10687;SDS011;5392;42.688;23.298;2022-07-23T11:47:24;5.80;;;1.70;;
10687;SDS011;5392;42.688;23.298;2022-07-23T11:49:53;8.32;;;2.00;;
10687;SDS011;5392;42.688;23.298;2022-07-23T11:52:25;11.07;;;1.73;;
10687;SDS011;5392;42.688;23.298;2022-07-23T11:55:03;9.65;;;2.08;;
10687;SDS011;5392;42.688;23.298;2022-07-23T11:57:33;12.02;;;1.85;;
10687;SDS011;5392;42.688;23.298;2022-07-23T12:00:13;13.88;;;2.10;;
10687;SDS011;5392;42.688;23.298;2022-07-23T12:02:47;11.60;;;1.95;;
10687;SDS011;5392;42.688;23.298;2022-07-23T12:05:21;8.35;;;1.27;;
10687;SDS011;5392;42.688;23.298;2022-07-23T12:07:52;9.90;;;2.03;;
10687;SDS011;5392;42.688;23.298;2022-07-23T12:10:21;12.35;;;1.63;;
10687;SDS011;5392;42.688;23.298;2022-07-23T12:12:52;12.75;;;2.10;;
10687;SDS011;5392;42.688;23.298;2022-07-23T12:15:28;6.78;;;1.85;;
10687;SDS011;5392;42.688;23.298;2022-07-23T12:18:00;5.95;;;2.00;;
10687;SDS011;5392;42.688;23.298;2022-07-23T12:20:31;9.68;;;1.75;;
10687;SDS011;5392;42.688;23.298;2022-07-23T12:23:25;6.95;;;1.35;;
10687;SDS011;5392;42.688;23.298;2022-07-23T12:25:53;7.65;;;1.48;;
10687;SDS011;5392;42.688;23.298;2022-07-23T12:28:30;15.18;;;1.83;;
10687;SDS011;5392;42.688;23.298;2022-07-23T12:30:59;12.40;;;2.00;;
10687;SDS011;5392;42.688;23.298;2022-07-23T12:33:27;7.90;;;1.73;;
10687;SDS011;5392;42.688;23.298;2022-07-23T12:36:01;7.70;;;2.03;;
10687;SDS011;5392;42.688;23.298;2022-07-23T12:38:39;6.00;;;1.75;;
10687;SDS011;5392;42.688;23.298;2022-07-23T12:41:10;12.38;;;2.00;;
10687;SDS011;5392;42.688;23.298;2022-07-23T12:43:41;11.05;;;1.75;;
10687;SDS011;5392;42.688;23.298;2022-07-23T12:46:13;9.75;;;1.80;;
10687;SDS011;5392;42.688;23.298;2022-07-23T12:51:18;8.35;;;1.98;;
10687;SDS011;5392;42.688;23.298;2022-07-23T12:56:36;6.50;;;1.60;;
10687;SDS011;5392;42.688;23.298;2022-07-23T12:59:05;9.32;;;2.00;;
10687;SDS011;5392;42.688;23.298;2022-07-23T13:01:35;11.68;;;1.80;;
10687;SDS011;5392;42.688;23.298;2022-07-23T13:04:08;8.25;;;1.65;;
10687;SDS011;5392;42.688;23.298;2022-07-23T13:06:58;8.60;;;1.98;;
10687;SDS011;5392;42.688;23.298;2022-07-23T13:09:31;12.90;;;1.90;;
10687;SDS011;5392;42.688;23.298;2022-07-23T13:12:07;9.52;;;1.83;;
10687;SDS011;5392;42.688;23.298;2022-07-23T13:14:37;10.80;;;1.33;;
10687;SDS011;5392;42.688;23.298;2022-07-23T13:17:05;9.65;;;1.90;;
10687;SDS011;5392;42.688;23.298;2022-07-23T13:19:33;15.05;;;2.20;;
10687;SDS011;5392;42.688;23.298;2022-07-23T13:22:01;8.40;;;1.73;;
10687;SDS011;5392;42.688;23.298;2022-07-23T13:24:35;6.10;;;1.67;;
10687;SDS011;5392;42.688;23.298;2022-07-23T13:27:04;6.75;;;1.50;;
10687;SDS011;5392;42.688;23.298;2022-07-23T13:29:38;5.50;;;1.77;;
10687;SDS011;5392;42.688;23.298;2022-07-23T13:32:05;9.13;;;1.48;;
10687;SDS011;5392;42.688;23.298;2022-07-23T13:34:38;4.55;;;1.75;;
10687;SDS011;5392;42.688;23.298;2022-07-23T13:37:07;6.88;;;3.28;;
10687;SDS011;5392;42.688;23.298;2022-07-23T13:39:33;5.93;;;1.30;;
10687;SDS011;5392;42.688;23.298;2022-07-23T13:42:04;8.57;;;1.60;;
10687;SDS011;5392;42.688;23.298;2022-07-23T13:44:32;8.88;;;1.92;;
10687;SDS011;5392;42.688;23.298;2022-07-23T13:47:00;7.93;;;0.93;;
10687;SDS011;5392;42.688;23.298;2022-07-23T13:49:27;6.35;;;1.40;;
10687;SDS011;5392;42.688;23.298;2022-07-23T13:51:54;3.30;;;1.27;;
10687;SDS011;5392;42.688;23.298;2022-07-23T13:54:21;4.88;;;1.35;;
10687;SDS011;5392;42.688;23.298;2022-07-23T13:56:48;4.78;;;1.20;;
10687;SDS011;5392;42.688;23.298;2022-07-23T13:59:16;3.20;;;1.30;;
10687;SDS011;5392;42.688;23.298;2022-07-23T14:01:43;4.97;;;1.08;;
10687;SDS011;5392;42.688;23.298;2022-07-23T14:04:30;5.38;;;1.33;;
10687;SDS011;5392;42.688;23.298;2022-07-23T14:06:57;7.38;;;1.65;;
10687;SDS011;5392;42.688;23.298;2022-07-23T14:09:24;9.20;;;1.30;;
10687;SDS011;5392;42.688;23.298;2022-07-23T14:11:52;7.32;;;1.65;;
10687;SDS011;5392;42.688;23.298;2022-07-23T14:14:20;9.25;;;1.35;;
10687;SDS011;5392;42.688;23.298;2022-07-23T14:16:48;4.63;;;1.50;;
10687;SDS011;5392;42.688;23.298;2022-07-23T14:19:15;4.95;;;1.27;;
10687;SDS011;5392;42.688;23.298;2022-07-23T14:21:44;7.38;;;1.40;;
10687;SDS011;5392;42.688;23.298;2022-07-23T14:24:11;6.20;;;1.50;;
10687;SDS011;5392;42.688;23.298;2022-07-23T14:26:39;6.93;;;1.67;;
10687;SDS011;5392;42.688;23.298;2022-07-23T14:29:08;7.55;;;1.45;;
10687;SDS011;5392;42.688;23.298;2022-07-23T14:31:35;8.90;;;2.00;;
10687;SDS011;5392;42.688;23.298;2022-07-23T14:34:02;6.63;;;1.50;;
10687;SDS011;5392;42.688;23.298;2022-07-23T14:36:29;7.15;;;1.30;;
10687;SDS011;5392;42.688;23.298;2022-07-23T14:38:56;4.90;;;1.25;;
10687;SDS011;5392;42.688;23.298;2022-07-23T14:41:23;7.30;;;1.65;;
10687;SDS011;5392;42.688;23.298;2022-07-23T14:43:53;3.45;;;1.63;;
10687;SDS011;5392;42.688;23.298;2022-07-23T14:46:20;10.48;;;1.60;;
10687;SDS011;5392;42.688;23.298;2022-07-23T14:48:47;6.20;;;1.30;;
10687;SDS011;5392;42.688;23.298;2022-07-23T14:51:14;7.38;;;1.25;;
10687;SDS011;5392;42.688;23.298;2022-07-23T14:53:41;8.15;;;1.42;;
10687;SDS011;5392;42.688;23.298;2022-07-23T14:56:08;6.35;;;1.50;;
10687;SDS011;5392;42.688;23.298;2022-07-23T14:58:36;9.02;;;1.50;;
10687;SDS011;5392;42.688;23.298;2022-07-23T15:01:03;5.57;;;1.42;;
10687;SDS011;5392;42.688;23.298;2022-07-23T15:03:30;5.07;;;1.83;;
10687;SDS011;5392;42.688;23.298;2022-07-23T15:06:08;8.15;;;1.90;;
10687;SDS011;5392;42.688;23.298;2022-07-23T15:08:35;9.45;;;1.58;;
10687;SDS011;5392;42.688;23.298;2022-07-23T15:11:01;7.57;;;1.40;;
10687;SDS011;5392;42.688;23.298;2022-07-23T15:13:28;6.80;;;1.48;;
10687;SDS011;5392;42.688;23.298;2022-07-23T15:15:57;7.40;;;1.35;;
10687;SDS011;5392;42.688;23.298;2022-07-23T15:18:24;3.97;;;1.40;;
10687;SDS011;5392;42.688;23.298;2022-07-23T15:20:50;4.57;;;1.42;;
10687;SDS011;5392;42.688;23.298;2022-07-23T15:23:18;11.05;;;1.65;;
10687;SDS011;5392;42.688;23.298;2022-07-23T15:25:45;9.98;;;1.70;;
10687;SDS011;5392;42.688;23.298;2022-07-23T15:28:16;9.27;;;1.67;;
10687;SDS011;5392;42.688;23.298;2022-07-23T15:30:47;6.38;;;1.40;;
10687;SDS011;5392;42.688;23.298;2022-07-23T15:33:19;8.02;;;1.65;;
10687;SDS011;5392;42.688;23.298;2022-07-23T15:35:47;5.03;;;1.58;;
10687;SDS011;5392;42.688;23.298;2022-07-23T15:38:15;9.13;;;1.80;;
10687;SDS011;5392;42.688;23.298;2022-07-23T15:40:50;4.78;;;1.70;;
10687;SDS011;5392;42.688;23.298;2022-07-23T15:43:17;3.38;;;1.98;;
10687;SDS011;5392;42.688;23.298;2022-07-23T15:45:45;5.70;;;2.28;;
10687;SDS011;5392;42.688;23.298;2022-07-23T15:48:12;4.32;;;2.30;;